sensor_id;sensor_type;location;lat;lon;timestamp;P1;durP1;ratioP1;P2;durP2;ratioP2
19869;SDS011;10097;50.862;4.696;2023-04-25T00:02:09;15.57;;;4.43;;
19869;SDS011;10097;50.862;4.696;2023-04-25T00:04:34;22.90;;;5.40;;
19869;SDS011;10097;50.862;4.696;2023-04-25T00:07:02;17.53;;;4.90;;
19869;SDS011;10097;50.862;4.696;2023-04-25T00:09:28;20.37;;;5.17;;
19869;SDS011;10097;50.862;4.696;2023-04-25T00:11:55;18.60;;;5.60;;
19869;SDS011;10097;50.862;4.696;2023-04-25T00:14:21;19.50;;;4.97;;
19869;SDS011;10097;50.862;4.696;2023-04-25T00:16:47;18.00;;;4.50;;
19869;SDS011;10097;50.862;4.696;2023-04-25T00:19:13;20.77;;;5.07;;
19869;SDS011;10097;50.862;4.696;2023-04-25T00:21:39;21.27;;;4.90;;
19869;SDS011;10097;50.862;4.696;2023-04-25T00:24:07;15.87;;;4.50;;
19869;SDS011;10097;50.862;4.696;2023-04-25T00:26:34;17.03;;;4.77;;
19869;SDS011;10097;50.862;4.696;2023-04-25T00:29:00;20.70;;;4.77;;
19869;SDS011;10097;50.862;4.696;2023-04-25T00:31:26;16.37;;;4.53;;
19869;SDS011;10097;50.862;4.696;2023-04-25T00:33:53;26.00;;;5.83;;
19869;SDS011;10097;50.862;4.696;2023-04-25T00:36:19;23.87;;;4.53;;
19869;SDS011;10097;50.862;4.696;2023-04-25T00:38:45;18.93;;;4.50;;
19869;SDS011;10097;50.862;4.696;2023-04-25T00:41:11;16.37;;;4.77;;
19869;SDS011;10097;50.862;4.696;2023-04-25T00:43:37;21.70;;;4.90;;
19869;SDS011;10097;50.862;4.696;2023-04-25T00:46:03;20.33;;;5.27;;
19869;SDS011;10097;50.862;4.696;2023-04-25T00:48:28;20.10;;;5.17;;
19869;SDS011;10097;50.862;4.696;2023-04-25T00:50:57;14.50;;;4.63;;
19869;SDS011;10097;50.862;4.696;2023-04-25T00:53:24;21.17;;;5.47;;
19869;SDS011;10097;50.862;4.696;2023-04-25T00:55:51;21.83;;;5.20;;
19869;SDS011;10097;50.862;4.696;2023-04-25T00:58:18;25.43;;;4.70;;
19869;SDS011;10097;50.862;4.696;2023-04-25T01:00:48;21.63;;;5.17;;
19869;SDS011;10097;50.862;4.696;2023-04-25T01:03:16;22.33;;;5.90;;
19869;SDS011;10097;50.862;4.696;2023-04-25T01:05:42;23.30;;;5.00;;
19869;SDS011;10097;50.862;4.696;2023-04-25T01:08:08;27.23;;;5.50;;
19869;SDS011;10097;50.862;4.696;2023-04-25T01:10:35;21.90;;;4.87;;
19869;SDS011;10097;50.862;4.696;2023-04-25T01:13:01;17.90;;;5.07;;
19869;SDS011;10097;50.862;4.696;2023-04-25T01:15:27;19.67;;;6.47;;
19869;SDS011;10097;50.862;4.696;2023-04-25T01:17:52;23.97;;;5.90;;
19869;SDS011;10097;50.862;4.696;2023-04-25T01:20:20;24.20;;;4.97;;
19869;SDS011;10097;50.862;4.696;2023-04-25T01:22:48;20.53;;;5.93;;
19869;SDS011;10097;50.862;4.696;2023-04-25T01:25:15;28.47;;;6.20;;
19869;SDS011;10097;50.862;4.696;2023-04-25T01:27:42;24.27;;;5.43;;
19869;SDS011;10097;50.862;4.696;2023-04-25T01:30:07;17.00;;;5.33;;
19869;SDS011;10097;50.862;4.696;2023-04-25T01:32:33;21.70;;;5.37;;
19869;SDS011;10097;50.862;4.696;2023-04-25T01:35:06;21.13;;;4.90;;
19869;SDS011;10097;50.862;4.696;2023-04-25T01:37:37;27.20;;;6.67;;
19869;SDS011;10097;50.862;4.696;2023-04-25T01:40:04;24.23;;;5.20;;
19869;SDS011;10097;50.862;4.696;2023-04-25T01:42:31;22.67;;;5.20;;
19869;SDS011;10097;50.862;4.696;2023-04-25T01:44:58;18.90;;;4.90;;
19869;SDS011;10097;50.862;4.696;2023-04-25T01:47:24;23.33;;;4.70;;
19869;SDS011;10097;50.862;4.696;2023-04-25T01:49:49;20.40;;;4.73;;
19869;SDS011;10097;50.862;4.696;2023-04-25T01:52:15;20.87;;;4.77;;
19869;SDS011;10097;50.862;4.696;2023-04-25T01:54:41;16.77;;;4.53;;
19869;SDS011;10097;50.862;4.696;2023-04-25T01:57:09;19.80;;;4.37;;
19869;SDS011;10097;50.862;4.696;2023-04-25T01:59:36;18.67;;;4.50;;
19869;SDS011;10097;50.862;4.696;2023-04-25T02:02:01;19.60;;;4.53;;
19869;SDS011;10097;50.862;4.696;2023-04-25T02:04:29;20.93;;;4.60;;
19869;SDS011;10097;50.862;4.696;2023-04-25T02:06:55;21.90;;;5.13;;
19869;SDS011;10097;50.862;4.696;2023-04-25T02:09:21;23.40;;;5.23;;
19869;SDS011;10097;50.862;4.696;2023-04-25T02:11:46;21.73;;;4.27;;
19869;SDS011;10097;50.862;4.696;2023-04-25T02:14:12;22.53;;;3.70;;
19869;SDS011;10097;50.862;4.696;2023-04-25T02:16:38;20.83;;;4.70;;
19869;SDS011;10097;50.862;4.696;2023-04-25T02:19:04;25.17;;;5.10;;
19869;SDS011;10097;50.862;4.696;2023-04-25T02:21:30;18.27;;;4.57;;
19869;SDS011;10097;50.862;4.696;2023-04-25T02:23:57;23.87;;;4.80;;
19869;SDS011;10097;50.862;4.696;2023-04-25T02:26:23;19.70;;;4.50;;
19869;SDS011;10097;50.862;4.696;2023-04-25T02:28:49;21.60;;;4.60;;
19869;SDS011;10097;50.862;4.696;2023-04-25T02:31:15;19.47;;;4.53;;
19869;SDS011;10097;50.862;4.696;2023-04-25T02:33:41;21.57;;;4.20;;
19869;SDS011;10097;50.862;4.696;2023-04-25T02:36:07;18.20;;;4.17;;
19869;SDS011;10097;50.862;4.696;2023-04-25T02:38:33;25.57;;;5.43;;
19869;SDS011;10097;50.862;4.696;2023-04-25T02:40:58;29.73;;;5.77;;
19869;SDS011;10097;50.862;4.696;2023-04-25T02:43:24;22.30;;;4.77;;
19869;SDS011;10097;50.862;4.696;2023-04-25T02:45:50;28.17;;;5.23;;
19869;SDS011;10097;50.862;4.696;2023-04-25T02:48:15;17.37;;;5.13;;
19869;SDS011;10097;50.862;4.696;2023-04-25T02:50:41;15.93;;;4.70;;
19869;SDS011;10097;50.862;4.696;2023-04-25T02:53:07;17.97;;;4.73;;
19869;SDS011;10097;50.862;4.696;2023-04-25T02:55:33;23.20;;;4.77;;
19869;SDS011;10097;50.862;4.696;2023-04-25T02:57:58;23.03;;;6.10;;
19869;SDS011;10097;50.862;4.696;2023-04-25T03:00:24;23.37;;;4.53;;
19869;SDS011;10097;50.862;4.696;2023-04-25T03:02:50;20.93;;;4.63;;
19869;SDS011;10097;50.862;4.696;2023-04-25T03:05:16;21.50;;;4.50;;
19869;SDS011;10097;50.862;4.696;2023-04-25T03:07:42;18.30;;;4.87;;
19869;SDS011;10097;50.862;4.696;2023-04-25T03:10:09;16.43;;;4.10;;
19869;SDS011;10097;50.862;4.696;2023-04-25T03:12:35;22.70;;;4.87;;
19869;SDS011;10097;50.862;4.696;2023-04-25T03:15:01;27.13;;;5.90;;
19869;SDS011;10097;50.862;4.696;2023-04-25T03:17:27;25.07;;;5.33;;
19869;SDS011;10097;50.862;4.696;2023-04-25T03:19:53;18.27;;;4.13;;
19869;SDS011;10097;50.862;4.696;2023-04-25T03:22:19;20.23;;;4.43;;
19869;SDS011;10097;50.862;4.696;2023-04-25T03:24:45;18.00;;;4.07;;
19869;SDS011;10097;50.862;4.696;2023-04-25T03:27:10;20.33;;;4.77;;
19869;SDS011;10097;50.862;4.696;2023-04-25T03:29:39;20.23;;;4.53;;
19869;SDS011;10097;50.862;4.696;2023-04-25T03:32:05;17.30;;;4.63;;
19869;SDS011;10097;50.862;4.696;2023-04-25T03:34:31;20.13;;;5.70;;
19869;SDS011;10097;50.862;4.696;2023-04-25T03:36:56;18.93;;;3.80;;
19869;SDS011;10097;50.862;4.696;2023-04-25T03:39:22;19.40;;;4.67;;
19869;SDS011;10097;50.862;4.696;2023-04-25T03:41:48;28.13;;;5.03;;
19869;SDS011;10097;50.862;4.696;2023-04-25T03:44:13;20.93;;;5.07;;
19869;SDS011;10097;50.862;4.696;2023-04-25T03:46:39;33.67;;;5.30;;
19869;SDS011;10097;50.862;4.696;2023-04-25T03:49:05;25.43;;;4.83;;
19869;SDS011;10097;50.862;4.696;2023-04-25T03:51:31;22.93;;;4.20;;
19869;SDS011;10097;50.862;4.696;2023-04-25T03:53:57;26.53;;;4.40;;
19869;SDS011;10097;50.862;4.696;2023-04-25T03:56:22;17.33;;;3.87;;
19869;SDS011;10097;50.862;4.696;2023-04-25T03:58:48;21.07;;;5.23;;
19869;SDS011;10097;50.862;4.696;2023-04-25T04:01:14;18.53;;;3.73;;
19869;SDS011;10097;50.862;4.696;2023-04-25T04:03:39;24.93;;;4.30;;
19869;SDS011;10097;50.862;4.696;2023-04-25T04:06:05;21.80;;;4.73;;
19869;SDS011;10097;50.862;4.696;2023-04-25T04:08:32;21.83;;;4.70;;
19869;SDS011;10097;50.862;4.696;2023-04-25T04:10:58;19.70;;;4.43;;
19869;SDS011;10097;50.862;4.696;2023-04-25T04:13:28;23.50;;;4.13;;
19869;SDS011;10097;50.862;4.696;2023-04-25T04:15:54;19.53;;;3.80;;
19869;SDS011;10097;50.862;4.696;2023-04-25T04:18:20;15.93;;;3.70;;
19869;SDS011;10097;50.862;4.696;2023-04-25T04:20:46;15.70;;;3.80;;
19869;SDS011;10097;50.862;4.696;2023-04-25T04:23:12;25.17;;;5.47;;
19869;SDS011;10097;50.862;4.696;2023-04-25T04:25:38;16.73;;;3.90;;
19869;SDS011;10097;50.862;4.696;2023-04-25T04:28:05;17.70;;;3.67;;
19869;SDS011;10097;50.862;4.696;2023-04-25T04:30:31;15.03;;;3.97;;
19869;SDS011;10097;50.862;4.696;2023-04-25T04:32:58;26.50;;;4.10;;
19869;SDS011;10097;50.862;4.696;2023-04-25T04:35:25;19.90;;;4.33;;
19869;SDS011;10097;50.862;4.696;2023-04-25T04:37:51;19.50;;;4.20;;
19869;SDS011;10097;50.862;4.696;2023-04-25T04:40:18;16.70;;;4.17;;
19869;SDS011;10097;50.862;4.696;2023-04-25T04:42:44;19.07;;;4.00;;
19869;SDS011;10097;50.862;4.696;2023-04-25T04:45:10;22.40;;;4.13;;
19869;SDS011;10097;50.862;4.696;2023-04-25T04:47:37;17.77;;;3.43;;
19869;SDS011;10097;50.862;4.696;2023-04-25T04:50:04;22.13;;;3.93;;
19869;SDS011;10097;50.862;4.696;2023-04-25T04:52:33;19.73;;;3.60;;
19869;SDS011;10097;50.862;4.696;2023-04-25T04:54:59;14.77;;;3.60;;
19869;SDS011;10097;50.862;4.696;2023-04-25T04:57:25;20.50;;;4.00;;
19869;SDS011;10097;50.862;4.696;2023-04-25T04:59:51;16.50;;;3.47;;
19869;SDS011;10097;50.862;4.696;2023-04-25T05:02:17;15.87;;;3.37;;
19869;SDS011;10097;50.862;4.696;2023-04-25T05:04:43;19.87;;;4.03;;
19869;SDS011;10097;50.862;4.696;2023-04-25T05:07:08;25.00;;;3.87;;
19869;SDS011;10097;50.862;4.696;2023-04-25T05:09:34;15.67;;;4.43;;
19869;SDS011;10097;50.862;4.696;2023-04-25T05:12:00;15.37;;;3.67;;
19869;SDS011;10097;50.862;4.696;2023-04-25T05:14:26;18.83;;;3.60;;
19869;SDS011;10097;50.862;4.696;2023-04-25T05:16:51;19.10;;;4.30;;
19869;SDS011;10097;50.862;4.696;2023-04-25T05:19:17;15.60;;;3.97;;
19869;SDS011;10097;50.862;4.696;2023-04-25T05:21:43;12.77;;;3.33;;
19869;SDS011;10097;50.862;4.696;2023-04-25T05:24:09;18.90;;;4.37;;
19869;SDS011;10097;50.862;4.696;2023-04-25T05:26:34;16.90;;;4.13;;
19869;SDS011;10097;50.862;4.696;2023-04-25T05:29:00;15.83;;;3.90;;
19869;SDS011;10097;50.862;4.696;2023-04-25T05:31:26;18.00;;;4.00;;
19869;SDS011;10097;50.862;4.696;2023-04-25T05:33:51;20.77;;;3.63;;
19869;SDS011;10097;50.862;4.696;2023-04-25T05:36:20;16.33;;;4.33;;
19869;SDS011;10097;50.862;4.696;2023-04-25T05:38:46;24.27;;;5.63;;
19869;SDS011;10097;50.862;4.696;2023-04-25T05:41:12;17.67;;;4.03;;
19869;SDS011;10097;50.862;4.696;2023-04-25T05:43:37;16.43;;;4.43;;
19869;SDS011;10097;50.862;4.696;2023-04-25T05:46:03;17.90;;;4.00;;
19869;SDS011;10097;50.862;4.696;2023-04-25T05:48:29;19.87;;;4.77;;
19869;SDS011;10097;50.862;4.696;2023-04-25T05:50:55;17.57;;;4.70;;
19869;SDS011;10097;50.862;4.696;2023-04-25T05:53:21;23.53;;;5.63;;
19869;SDS011;10097;50.862;4.696;2023-04-25T05:55:47;22.00;;;4.90;;
19869;SDS011;10097;50.862;4.696;2023-04-25T05:58:15;19.93;;;4.33;;
19869;SDS011;10097;50.862;4.696;2023-04-25T06:00:40;16.57;;;4.93;;
19869;SDS011;10097;50.862;4.696;2023-04-25T06:03:06;18.10;;;4.37;;
19869;SDS011;10097;50.862;4.696;2023-04-25T06:05:34;20.67;;;4.97;;
19869;SDS011;10097;50.862;4.696;2023-04-25T06:08:00;21.87;;;5.77;;
19869;SDS011;10097;50.862;4.696;2023-04-25T06:10:26;18.20;;;6.17;;
19869;SDS011;10097;50.862;4.696;2023-04-25T06:12:51;23.10;;;5.30;;
19869;SDS011;10097;50.862;4.696;2023-04-25T06:15:17;17.83;;;4.80;;
19869;SDS011;10097;50.862;4.696;2023-04-25T06:17:43;21.47;;;4.80;;
19869;SDS011;10097;50.862;4.696;2023-04-25T06:20:09;23.43;;;4.87;;
19869;SDS011;10097;50.862;4.696;2023-04-25T06:22:35;21.93;;;5.53;;
19869;SDS011;10097;50.862;4.696;2023-04-25T06:25:00;24.87;;;4.90;;
19869;SDS011;10097;50.862;4.696;2023-04-25T06:27:28;26.23;;;5.27;;
19869;SDS011;10097;50.862;4.696;2023-04-25T06:29:54;24.90;;;4.83;;
19869;SDS011;10097;50.862;4.696;2023-04-25T06:32:20;23.30;;;4.63;;
19869;SDS011;10097;50.862;4.696;2023-04-25T06:34:46;21.37;;;5.13;;
19869;SDS011;10097;50.862;4.696;2023-04-25T06:37:11;13.63;;;4.60;;
19869;SDS011;10097;50.862;4.696;2023-04-25T06:39:37;22.23;;;5.43;;
19869;SDS011;10097;50.862;4.696;2023-04-25T06:42:03;20.40;;;5.20;;
19869;SDS011;10097;50.862;4.696;2023-04-25T06:44:28;33.53;;;5.90;;
19869;SDS011;10097;50.862;4.696;2023-04-25T06:46:55;21.30;;;4.83;;
19869;SDS011;10097;50.862;4.696;2023-04-25T06:49:21;29.80;;;5.30;;
19869;SDS011;10097;50.862;4.696;2023-04-25T06:51:47;17.40;;;4.33;;
19869;SDS011;10097;50.862;4.696;2023-04-25T06:54:13;20.27;;;4.47;;
19869;SDS011;10097;50.862;4.696;2023-04-25T06:56:38;28.73;;;5.03;;
19869;SDS011;10097;50.862;4.696;2023-04-25T06:59:04;22.73;;;4.83;;
19869;SDS011;10097;50.862;4.696;2023-04-25T07:01:30;20.90;;;5.27;;
19869;SDS011;10097;50.862;4.696;2023-04-25T07:03:55;21.53;;;4.40;;
19869;SDS011;10097;50.862;4.696;2023-04-25T07:06:21;21.87;;;5.00;;
19869;SDS011;10097;50.862;4.696;2023-04-25T07:08:47;20.17;;;4.00;;
19869;SDS011;10097;50.862;4.696;2023-04-25T07:11:12;21.67;;;4.47;;
19869;SDS011;10097;50.862;4.696;2023-04-25T07:13:38;20.27;;;3.87;;
19869;SDS011;10097;50.862;4.696;2023-04-25T07:16:04;27.03;;;4.77;;
19869;SDS011;10097;50.862;4.696;2023-04-25T07:18:30;25.13;;;4.10;;
19869;SDS011;10097;50.862;4.696;2023-04-25T07:20:55;17.13;;;3.60;;
19869;SDS011;10097;50.862;4.696;2023-04-25T07:23:21;20.03;;;3.53;;
19869;SDS011;10097;50.862;4.696;2023-04-25T07:25:47;20.50;;;4.80;;
19869;SDS011;10097;50.862;4.696;2023-04-25T07:28:12;24.10;;;4.07;;
19869;SDS011;10097;50.862;4.696;2023-04-25T07:30:38;16.93;;;4.23;;
19869;SDS011;10097;50.862;4.696;2023-04-25T07:33:04;16.67;;;3.77;;
19869;SDS011;10097;50.862;4.696;2023-04-25T07:35:30;17.57;;;3.73;;
19869;SDS011;10097;50.862;4.696;2023-04-25T07:37:55;28.27;;;4.77;;
19869;SDS011;10097;50.862;4.696;2023-04-25T07:40:21;14.20;;;4.20;;
19869;SDS011;10097;50.862;4.696;2023-04-25T07:42:46;17.60;;;3.50;;
19869;SDS011;10097;50.862;4.696;2023-04-25T07:45:12;15.37;;;3.03;;
19869;SDS011;10097;50.862;4.696;2023-04-25T07:47:38;15.53;;;3.13;;
19869;SDS011;10097;50.862;4.696;2023-04-25T07:50:04;19.37;;;2.93;;
19869;SDS011;10097;50.862;4.696;2023-04-25T07:52:31;18.90;;;4.43;;
19869;SDS011;10097;50.862;4.696;2023-04-25T07:54:58;16.37;;;3.47;;
19869;SDS011;10097;50.862;4.696;2023-04-25T07:57:23;17.67;;;4.33;;
19869;SDS011;10097;50.862;4.696;2023-04-25T07:59:49;23.43;;;4.90;;
19869;SDS011;10097;50.862;4.696;2023-04-25T08:02:16;17.80;;;3.53;;
19869;SDS011;10097;50.862;4.696;2023-04-25T08:04:42;17.87;;;4.10;;
19869;SDS011;10097;50.862;4.696;2023-04-25T08:07:07;17.13;;;3.53;;
19869;SDS011;10097;50.862;4.696;2023-04-25T08:09:33;24.93;;;4.30;;
19869;SDS011;10097;50.862;4.696;2023-04-25T08:12:00;18.03;;;3.43;;
19869;SDS011;10097;50.862;4.696;2023-04-25T08:14:27;16.63;;;3.80;;
19869;SDS011;10097;50.862;4.696;2023-04-25T08:16:54;22.87;;;4.03;;
19869;SDS011;10097;50.862;4.696;2023-04-25T08:19:19;12.63;;;3.13;;
19869;SDS011;10097;50.862;4.696;2023-04-25T08:21:45;14.80;;;3.70;;
19869;SDS011;10097;50.862;4.696;2023-04-25T08:24:11;17.23;;;3.70;;
19869;SDS011;10097;50.862;4.696;2023-04-25T08:26:36;15.67;;;3.20;;
19869;SDS011;10097;50.862;4.696;2023-04-25T08:29:03;17.67;;;3.23;;
19869;SDS011;10097;50.862;4.696;2023-04-25T08:31:29;11.77;;;3.10;;
19869;SDS011;10097;50.862;4.696;2023-04-25T08:33:55;20.20;;;4.03;;
19869;SDS011;10097;50.862;4.696;2023-04-25T08:36:20;21.97;;;3.60;;
19869;SDS011;10097;50.862;4.696;2023-04-25T08:38:46;15.77;;;3.50;;
19869;SDS011;10097;50.862;4.696;2023-04-25T08:41:12;21.80;;;3.60;;
19869;SDS011;10097;50.862;4.696;2023-04-25T08:43:39;18.07;;;4.60;;
19869;SDS011;10097;50.862;4.696;2023-04-25T08:46:08;19.00;;;2.67;;
19869;SDS011;10097;50.862;4.696;2023-04-25T08:48:34;12.67;;;2.63;;
19869;SDS011;10097;50.862;4.696;2023-04-25T08:51:01;17.27;;;2.47;;
19869;SDS011;10097;50.862;4.696;2023-04-25T08:53:31;13.60;;;2.83;;
19869;SDS011;10097;50.862;4.696;2023-04-25T08:55:58;19.03;;;2.77;;
19869;SDS011;10097;50.862;4.696;2023-04-25T08:58:27;14.50;;;2.60;;
19869;SDS011;10097;50.862;4.696;2023-04-25T09:00:53;17.73;;;3.10;;
19869;SDS011;10097;50.862;4.696;2023-04-25T09:03:19;13.27;;;2.60;;
19869;SDS011;10097;50.862;4.696;2023-04-25T09:05:45;14.03;;;3.03;;
19869;SDS011;10097;50.862;4.696;2023-04-25T09:08:11;11.00;;;2.87;;
19869;SDS011;10097;50.862;4.696;2023-04-25T09:10:37;15.17;;;2.77;;
19869;SDS011;10097;50.862;4.696;2023-04-25T09:18:35;13.83;;;2.83;;
19869;SDS011;10097;50.862;4.696;2023-04-25T09:21:21;11.10;;;2.40;;
19869;SDS011;10097;50.862;4.696;2023-04-25T09:23:47;14.93;;;3.10;;
19869;SDS011;10097;50.862;4.696;2023-04-25T09:26:18;15.57;;;2.70;;
19869;SDS011;10097;50.862;4.696;2023-04-25T09:28:45;20.13;;;2.63;;
19869;SDS011;10097;50.862;4.696;2023-04-25T09:31:20;10.30;;;2.40;;
19869;SDS011;10097;50.862;4.696;2023-04-25T09:33:49;14.00;;;2.57;;
19869;SDS011;10097;50.862;4.696;2023-04-25T09:36:15;19.83;;;3.10;;
19869;SDS011;10097;50.862;4.696;2023-04-25T09:38:41;14.00;;;2.17;;
19869;SDS011;10097;50.862;4.696;2023-04-25T09:41:11;9.23;;;2.07;;
19869;SDS011;10097;50.862;4.696;2023-04-25T09:43:37;8.13;;;1.70;;
19869;SDS011;10097;50.862;4.696;2023-04-25T09:46:10;11.70;;;1.90;;
19869;SDS011;10097;50.862;4.696;2023-04-25T09:48:36;12.27;;;1.97;;
19869;SDS011;10097;50.862;4.696;2023-04-25T09:53:36;9.90;;;2.20;;
19869;SDS011;10097;50.862;4.696;2023-04-25T09:56:04;13.47;;;2.30;;
19869;SDS011;10097;50.862;4.696;2023-04-25T09:58:31;13.10;;;2.77;;
19869;SDS011;10097;50.862;4.696;2023-04-25T10:00:59;15.40;;;3.17;;
19869;SDS011;10097;50.862;4.696;2023-04-25T10:03:26;15.10;;;2.67;;
19869;SDS011;10097;50.862;4.696;2023-04-25T10:06:00;9.00;;;2.17;;
19869;SDS011;10097;50.862;4.696;2023-04-25T10:08:36;10.00;;;1.70;;
19869;SDS011;10097;50.862;4.696;2023-04-25T10:11:04;10.13;;;2.33;;
19869;SDS011;10097;50.862;4.696;2023-04-25T10:13:33;10.53;;;1.30;;
19869;SDS011;10097;50.862;4.696;2023-04-25T10:16:01;10.77;;;1.87;;
19869;SDS011;10097;50.862;4.696;2023-04-25T10:18:28;8.47;;;1.80;;
19869;SDS011;10097;50.862;4.696;2023-04-25T10:21:00;6.47;;;1.40;;
19869;SDS011;10097;50.862;4.696;2023-04-25T10:23:28;9.93;;;1.50;;
19869;SDS011;10097;50.862;4.696;2023-04-25T10:25:55;9.53;;;1.47;;
19869;SDS011;10097;50.862;4.696;2023-04-25T10:28:22;9.60;;;1.33;;
19869;SDS011;10097;50.862;4.696;2023-04-25T10:31:03;5.83;;;1.40;;
19869;SDS011;10097;50.862;4.696;2023-04-25T10:33:36;9.93;;;1.53;;
19869;SDS011;10097;50.862;4.696;2023-04-25T10:36:10;5.40;;;1.13;;
19869;SDS011;10097;50.862;4.696;2023-04-25T10:38:39;7.07;;;2.17;;
19869;SDS011;10097;50.862;4.696;2023-04-25T10:41:05;6.53;;;1.23;;
19869;SDS011;10097;50.862;4.696;2023-04-25T10:46:01;10.13;;;1.63;;
19869;SDS011;10097;50.862;4.696;2023-04-25T10:48:28;9.00;;;1.27;;
19869;SDS011;10097;50.862;4.696;2023-04-25T10:51:08;8.43;;;1.00;;
19869;SDS011;10097;50.862;4.696;2023-04-25T10:53:34;6.80;;;1.30;;
19869;SDS011;10097;50.862;4.696;2023-04-25T10:56:00;9.20;;;1.37;;
19869;SDS011;10097;50.862;4.696;2023-04-25T10:58:34;4.80;;;1.03;;
19869;SDS011;10097;50.862;4.696;2023-04-25T11:01:00;6.70;;;1.30;;
19869;SDS011;10097;50.862;4.696;2023-04-25T11:03:26;8.37;;;1.23;;
19869;SDS011;10097;50.862;4.696;2023-04-25T11:05:52;5.27;;;1.30;;
19869;SDS011;10097;50.862;4.696;2023-04-25T11:08:20;9.07;;;1.60;;
19869;SDS011;10097;50.862;4.696;2023-04-25T11:11:07;8.00;;;1.43;;
19869;SDS011;10097;50.862;4.696;2023-04-25T11:13:33;8.77;;;1.27;;
19869;SDS011;10097;50.862;4.696;2023-04-25T11:15:59;10.03;;;1.47;;
19869;SDS011;10097;50.862;4.696;2023-04-25T11:18:26;7.80;;;1.30;;
19869;SDS011;10097;50.862;4.696;2023-04-25T11:20:52;10.87;;;1.53;;
19869;SDS011;10097;50.862;4.696;2023-04-25T11:23:17;9.40;;;1.60;;
19869;SDS011;10097;50.862;4.696;2023-04-25T11:25:43;8.73;;;1.57;;
19869;SDS011;10097;50.862;4.696;2023-04-25T11:28:09;6.77;;;1.77;;
19869;SDS011;10097;50.862;4.696;2023-04-25T11:30:35;11.27;;;2.13;;
19869;SDS011;10097;50.862;4.696;2023-04-25T11:33:01;7.40;;;1.37;;
19869;SDS011;10097;50.862;4.696;2023-04-25T11:35:28;11.17;;;1.47;;
19869;SDS011;10097;50.862;4.696;2023-04-25T11:37:53;7.57;;;1.50;;
19869;SDS011;10097;50.862;4.696;2023-04-25T11:40:20;12.57;;;2.33;;
19869;SDS011;10097;50.862;4.696;2023-04-25T11:42:46;10.70;;;1.70;;
19869;SDS011;10097;50.862;4.696;2023-04-25T11:45:12;7.20;;;1.70;;
19869;SDS011;10097;50.862;4.696;2023-04-25T11:47:38;41.23;;;3.50;;
19869;SDS011;10097;50.862;4.696;2023-04-25T11:50:05;10.53;;;1.83;;
19869;SDS011;10097;50.862;4.696;2023-04-25T11:52:50;11.07;;;1.70;;
19869;SDS011;10097;50.862;4.696;2023-04-25T11:55:18;9.13;;;2.03;;
19869;SDS011;10097;50.862;4.696;2023-04-25T11:57:45;6.77;;;1.47;;
19869;SDS011;10097;50.862;4.696;2023-04-25T12:00:17;9.67;;;1.60;;
19869;SDS011;10097;50.862;4.696;2023-04-25T12:02:47;12.90;;;1.80;;
19869;SDS011;10097;50.862;4.696;2023-04-25T12:05:16;6.67;;;1.73;;
19869;SDS011;10097;50.862;4.696;2023-04-25T12:07:42;9.53;;;1.80;;
19869;SDS011;10097;50.862;4.696;2023-04-25T12:10:08;7.03;;;1.60;;
19869;SDS011;10097;50.862;4.696;2023-04-25T12:12:36;5.67;;;1.60;;
19869;SDS011;10097;50.862;4.696;2023-04-25T12:15:10;9.50;;;1.67;;
19869;SDS011;10097;50.862;4.696;2023-04-25T12:17:41;11.50;;;1.90;;
19869;SDS011;10097;50.862;4.696;2023-04-25T12:20:12;9.43;;;1.97;;
19869;SDS011;10097;50.862;4.696;2023-04-25T12:22:43;7.73;;;1.57;;
19869;SDS011;10097;50.862;4.696;2023-04-25T12:33:26;11.73;;;1.70;;
19869;SDS011;10097;50.862;4.696;2023-04-25T12:35:55;8.70;;;1.80;;
19869;SDS011;10097;50.862;4.696;2023-04-25T12:40:52;8.73;;;1.77;;
19869;SDS011;10097;50.862;4.696;2023-04-25T12:43:19;5.75;;;1.58;;
19869;SDS011;10097;50.862;4.696;2023-04-25T12:45:47;4.37;;;1.10;;
19869;SDS011;10097;50.862;4.696;2023-04-25T12:48:14;7.10;;;1.10;;
19869;SDS011;10097;50.862;4.696;2023-04-25T12:50:40;6.67;;;1.50;;
19869;SDS011;10097;50.862;4.696;2023-04-25T12:53:06;5.43;;;0.90;;
19869;SDS011;10097;50.862;4.696;2023-04-25T12:55:33;4.40;;;1.10;;
19869;SDS011;10097;50.862;4.696;2023-04-25T12:57:58;5.53;;;1.07;;
19869;SDS011;10097;50.862;4.696;2023-04-25T13:00:24;4.30;;;0.83;;
19869;SDS011;10097;50.862;4.696;2023-04-25T13:02:51;4.70;;;1.00;;
19869;SDS011;10097;50.862;4.696;2023-04-25T13:05:17;6.10;;;0.90;;
19869;SDS011;10097;50.862;4.696;2023-04-25T13:07:42;6.97;;;1.33;;
19869;SDS011;10097;50.862;4.696;2023-04-25T13:10:08;4.60;;;1.30;;
19869;SDS011;10097;50.862;4.696;2023-04-25T13:12:34;3.07;;;1.10;;
19869;SDS011;10097;50.862;4.696;2023-04-25T13:15:00;3.97;;;0.80;;
19869;SDS011;10097;50.862;4.696;2023-04-25T13:17:25;6.82;;;0.98;;
19869;SDS011;10097;50.862;4.696;2023-04-25T13:19:51;6.43;;;1.02;;
19869;SDS011;10097;50.862;4.696;2023-04-25T13:22:17;11.40;;;1.30;;
19869;SDS011;10097;50.862;4.696;2023-04-25T13:24:45;6.05;;;1.33;;
19869;SDS011;10097;50.862;4.696;2023-04-25T13:27:11;7.20;;;1.45;;
19869;SDS011;10097;50.862;4.696;2023-04-25T13:29:36;7.90;;;1.50;;
19869;SDS011;10097;50.862;4.696;2023-04-25T13:32:03;9.18;;;1.70;;
19869;SDS011;10097;50.862;4.696;2023-04-25T13:34:30;7.47;;;1.10;;
19869;SDS011;10097;50.862;4.696;2023-04-25T13:36:55;11.10;;;1.33;;
19869;SDS011;10097;50.862;4.696;2023-04-25T13:39:21;6.25;;;1.25;;
19869;SDS011;10097;50.862;4.696;2023-04-25T13:41:47;5.78;;;1.17;;
19869;SDS011;10097;50.862;4.696;2023-04-25T13:44:18;3.87;;;1.10;;
19869;SDS011;10097;50.862;4.696;2023-04-25T13:46:43;7.22;;;1.35;;
19869;SDS011;10097;50.862;4.696;2023-04-25T13:49:11;12.05;;;2.20;;
19869;SDS011;10097;50.862;4.696;2023-04-25T13:51:36;8.38;;;1.73;;
19869;SDS011;10097;50.862;4.696;2023-04-25T13:54:02;7.73;;;1.33;;
19869;SDS011;10097;50.862;4.696;2023-04-25T13:56:29;12.95;;;1.60;;
19869;SDS011;10097;50.862;4.696;2023-04-25T13:58:55;6.30;;;1.50;;
19869;SDS011;10097;50.862;4.696;2023-04-25T14:01:21;6.97;;;1.35;;
19869;SDS011;10097;50.862;4.696;2023-04-25T14:03:47;7.82;;;1.70;;
19869;SDS011;10097;50.862;4.696;2023-04-25T14:06:13;4.50;;;1.02;;
19869;SDS011;10097;50.862;4.696;2023-04-25T14:08:38;5.50;;;0.85;;
19869;SDS011;10097;50.862;4.696;2023-04-25T14:11:04;9.88;;;1.58;;
19869;SDS011;10097;50.862;4.696;2023-04-25T14:13:30;4.72;;;1.02;;
19869;SDS011;10097;50.862;4.696;2023-04-25T14:15:56;4.50;;;0.88;;
19869;SDS011;10097;50.862;4.696;2023-04-25T14:18:22;4.45;;;1.42;;
19869;SDS011;10097;50.862;4.696;2023-04-25T14:20:47;7.73;;;1.37;;
19869;SDS011;10097;50.862;4.696;2023-04-25T14:23:13;7.50;;;1.33;;
19869;SDS011;10097;50.862;4.696;2023-04-25T14:25:39;7.17;;;1.23;;
19869;SDS011;10097;50.862;4.696;2023-04-25T14:28:06;8.60;;;1.30;;
19869;SDS011;10097;50.862;4.696;2023-04-25T14:30:32;7.30;;;1.20;;
19869;SDS011;10097;50.862;4.696;2023-04-25T14:32:58;9.77;;;1.70;;
19869;SDS011;10097;50.862;4.696;2023-04-25T14:35:23;6.87;;;1.30;;
19869;SDS011;10097;50.862;4.696;2023-04-25T14:37:49;4.83;;;1.00;;
19869;SDS011;10097;50.862;4.696;2023-04-25T14:40:15;4.67;;;1.20;;
19869;SDS011;10097;50.862;4.696;2023-04-25T14:42:42;8.97;;;2.13;;
19869;SDS011;10097;50.862;4.696;2023-04-25T14:45:08;5.97;;;0.90;;
19869;SDS011;10097;50.862;4.696;2023-04-25T14:47:34;5.17;;;1.33;;
19869;SDS011;10097;50.862;4.696;2023-04-25T14:50:04;11.27;;;1.30;;
19869;SDS011;10097;50.862;4.696;2023-04-25T14:52:30;7.15;;;1.40;;
19869;SDS011;10097;50.862;4.696;2023-04-25T14:54:56;6.85;;;0.95;;
19869;SDS011;10097;50.862;4.696;2023-04-25T14:57:21;7.88;;;1.00;;